sensor_id;sensor_type;location;lat;lon;timestamp;temperature;humidity
6054;DHT22;3055;50.886;14.814;2023-09-08T00:00:35;13.60;99.90
6054;DHT22;3055;50.886;14.814;2023-09-08T00:03:02;13.60;99.90
6054;DHT22;3055;50.886;14.814;2023-09-08T00:05:29;13.60;99.90
6054;DHT22;3055;50.886;14.814;2023-09-08T00:07:56;13.60;99.90
6054;DHT22;3055;50.886;14.814;2023-09-08T00:10:24;13.50;99.90
6054;DHT22;3055;50.886;14.814;2023-09-08T00:12:51;13.40;99.90
6054;DHT22;3055;50.886;14.814;2023-09-08T00:15:18;13.30;99.90
6054;DHT22;3055;50.886;14.814;2023-09-08T00:17:45;13.30;99.90
6054;DHT22;3055;50.886;14.814;2023-09-08T00:20:13;13.20;99.90
6054;DHT22;3055;50.886;14.814;2023-09-08T00:22:40;13.20;99.90
6054;DHT22;3055;50.886;14.814;2023-09-08T00:25:07;13.20;99.90
6054;DHT22;3055;50.886;14.814;2023-09-08T00:27:36;13.10;99.90
6054;DHT22;3055;50.886;14.814;2023-09-08T00:30:04;13.10;99.90
6054;DHT22;3055;50.886;14.814;2023-09-08T00:32:31;13.00;99.90
6054;DHT22;3055;50.886;14.814;2023-09-08T00:34:58;13.00;99.90
6054;DHT22;3055;50.886;14.814;2023-09-08T00:37:25;12.90;99.90
6054;DHT22;3055;50.886;14.814;2023-09-08T00:39:52;12.90;99.90
6054;DHT22;3055;50.886;14.814;2023-09-08T00:42:19;13.00;99.90
6054;DHT22;3055;50.886;14.814;2023-09-08T00:44:47;13.00;99.90
6054;DHT22;3055;50.886;14.814;2023-09-08T00:47:15;13.00;99.90
6054;DHT22;3055;50.886;14.814;2023-09-08T00:49:42;13.00;99.90
6054;DHT22;3055;50.886;14.814;2023-09-08T00:52:09;13.00;99.90
6054;DHT22;3055;50.886;14.814;2023-09-08T00:54:36;13.00;99.90
6054;DHT22;3055;50.886;14.814;2023-09-08T00:57:04;13.00;99.90
6054;DHT22;3055;50.886;14.814;2023-09-08T00:59:32;13.00;99.90
6054;DHT22;3055;50.886;14.814;2023-09-08T01:02:02;13.00;99.90
6054;DHT22;3055;50.886;14.814;2023-09-08T01:04:29;13.00;99.90
6054;DHT22;3055;50.886;14.814;2023-09-08T01:06:56;13.00;99.90
6054;DHT22;3055;50.886;14.814;2023-09-08T01:09:24;13.00;99.90
6054;DHT22;3055;50.886;14.814;2023-09-08T01:11:51;12.90;99.90
6054;DHT22;3055;50.886;14.814;2023-09-08T01:14:21;12.80;99.90
6054;DHT22;3055;50.886;14.814;2023-09-08T01:16:48;12.70;99.90
6054;DHT22;3055;50.886;14.814;2023-09-08T01:19:17;12.70;99.90
6054;DHT22;3055;50.886;14.814;2023-09-08T01:22:03;12.60;99.90
6054;DHT22;3055;50.886;14.814;2023-09-08T01:25:11;12.50;99.90
6054;DHT22;3055;50.886;14.814;2023-09-08T01:27:43;12.50;99.90
6054;DHT22;3055;50.886;14.814;2023-09-08T01:30:12;12.50;99.90
6054;DHT22;3055;50.886;14.814;2023-09-08T01:32:41;12.50;99.90
6054;DHT22;3055;50.886;14.814;2023-09-08T01:35:08;12.50;99.90
6054;DHT22;3055;50.886;14.814;2023-09-08T01:37:36;12.50;99.90
6054;DHT22;3055;50.886;14.814;2023-09-08T01:40:06;12.40;99.90
6054;DHT22;3055;50.886;14.814;2023-09-08T01:42:36;12.60;99.90
6054;DHT22;3055;50.886;14.814;2023-09-08T01:45:03;12.60;99.90
6054;DHT22;3055;50.886;14.814;2023-09-08T01:47:31;12.60;99.90
6054;DHT22;3055;50.886;14.814;2023-09-08T01:49:57;12.40;99.90
6054;DHT22;3055;50.886;14.814;2023-09-08T01:52:25;12.40;99.90
6054;DHT22;3055;50.886;14.814;2023-09-08T01:54:52;12.40;99.90
6054;DHT22;3055;50.886;14.814;2023-09-08T01:57:19;12.40;99.90
6054;DHT22;3055;50.886;14.814;2023-09-08T01:59:47;12.30;99.90
6054;DHT22;3055;50.886;14.814;2023-09-08T02:02:14;12.30;99.90
6054;DHT22;3055;50.886;14.814;2023-09-08T02:04:42;12.40;99.90
6054;DHT22;3055;50.886;14.814;2023-09-08T02:07:09;12.40;99.90
6054;DHT22;3055;50.886;14.814;2023-09-08T02:09:38;12.30;99.90
6054;DHT22;3055;50.886;14.814;2023-09-08T02:12:06;12.30;99.90
6054;DHT22;3055;50.886;14.814;2023-09-08T02:14:33;12.30;99.90
6054;DHT22;3055;50.886;14.814;2023-09-08T02:17:01;12.30;99.90
6054;DHT22;3055;50.886;14.814;2023-09-08T02:19:29;12.30;99.90
6054;DHT22;3055;50.886;14.814;2023-09-08T02:21:56;12.30;99.90
6054;DHT22;3055;50.886;14.814;2023-09-08T02:24:23;12.30;99.90
6054;DHT22;3055;50.886;14.814;2023-09-08T02:26:50;12.20;99.90
6054;DHT22;3055;50.886;14.814;2023-09-08T02:29:17;12.20;99.90
6054;DHT22;3055;50.886;14.814;2023-09-08T02:31:44;12.10;99.90
6054;DHT22;3055;50.886;14.814;2023-09-08T02:34:12;12.10;99.90
6054;DHT22;3055;50.886;14.814;2023-09-08T02:36:39;12.10;99.90
6054;DHT22;3055;50.886;14.814;2023-09-08T02:39:06;12.00;99.90
6054;DHT22;3055;50.886;14.814;2023-09-08T02:41:33;12.10;99.90
6054;DHT22;3055;50.886;14.814;2023-09-08T02:44:01;12.00;99.90
6054;DHT22;3055;50.886;14.814;2023-09-08T02:46:28;12.00;99.90
6054;DHT22;3055;50.886;14.814;2023-09-08T02:48:55;11.90;99.90
6054;DHT22;3055;50.886;14.814;2023-09-08T02:51:24;11.90;99.90
6054;DHT22;3055;50.886;14.814;2023-09-08T02:53:51;12.00;99.90
6054;DHT22;3055;50.886;14.814;2023-09-08T02:56:18;12.00;99.90
6054;DHT22;3055;50.886;14.814;2023-09-08T02:58:45;12.10;99.90
6054;DHT22;3055;50.886;14.814;2023-09-08T03:01:13;12.20;99.90
6054;DHT22;3055;50.886;14.814;2023-09-08T03:03:41;12.20;99.90
6054;DHT22;3055;50.886;14.814;2023-09-08T03:06:09;12.20;99.90
6054;DHT22;3055;50.886;14.814;2023-09-08T03:08:37;12.10;99.90
6054;DHT22;3055;50.886;14.814;2023-09-08T03:11:05;12.00;99.90
6054;DHT22;3055;50.886;14.814;2023-09-08T03:13:32;12.00;99.90
6054;DHT22;3055;50.886;14.814;2023-09-08T03:16:04;12.00;99.90
6054;DHT22;3055;50.886;14.814;2023-09-08T03:18:32;11.90;99.90
6054;DHT22;3055;50.886;14.814;2023-09-08T03:20:59;11.90;99.90
6054;DHT22;3055;50.886;14.814;2023-09-08T03:23:29;12.00;99.90
6054;DHT22;3055;50.886;14.814;2023-09-08T03:25:57;12.00;99.90
6054;DHT22;3055;50.886;14.814;2023-09-08T03:28:24;11.90;99.90
6054;DHT22;3055;50.886;14.814;2023-09-08T03:30:51;11.90;99.90
6054;DHT22;3055;50.886;14.814;2023-09-08T03:33:18;11.80;99.90
6054;DHT22;3055;50.886;14.814;2023-09-08T03:35:45;11.80;99.90
6054;DHT22;3055;50.886;14.814;2023-09-08T03:38:12;11.70;99.90
6054;DHT22;3055;50.886;14.814;2023-09-08T03:40:39;11.70;99.90
6054;DHT22;3055;50.886;14.814;2023-09-08T03:43:08;11.80;99.90
6054;DHT22;3055;50.886;14.814;2023-09-08T03:45:35;11.70;99.90
6054;DHT22;3055;50.886;14.814;2023-09-08T03:48:03;11.80;99.90
6054;DHT22;3055;50.886;14.814;2023-09-08T03:50:30;11.70;99.90
6054;DHT22;3055;50.886;14.814;2023-09-08T03:52:57;11.60;99.90
6054;DHT22;3055;50.886;14.814;2023-09-08T03:55:24;11.60;99.90
6054;DHT22;3055;50.886;14.814;2023-09-08T03:57:51;11.50;99.90
6054;DHT22;3055;50.886;14.814;2023-09-08T04:00:20;11.60;99.90
6054;DHT22;3055;50.886;14.814;2023-09-08T04:02:48;11.60;99.90
6054;DHT22;3055;50.886;14.814;2023-09-08T04:05:15;11.70;99.90
6054;DHT22;3055;50.886;14.814;2023-09-08T04:07:43;11.70;99.90
6054;DHT22;3055;50.886;14.814;2023-09-08T04:10:10;11.70;99.90
6054;DHT22;3055;50.886;14.814;2023-09-08T04:12:38;11.70;99.90
6054;DHT22;3055;50.886;14.814;2023-09-08T04:15:06;11.80;99.90
6054;DHT22;3055;50.886;14.814;2023-09-08T04:17:34;11.70;99.90
6054;DHT22;3055;50.886;14.814;2023-09-08T04:20:01;11.70;99.90
6054;DHT22;3055;50.886;14.814;2023-09-08T04:22:30;11.80;99.90
6054;DHT22;3055;50.886;14.814;2023-09-08T04:24:59;11.80;99.90
6054;DHT22;3055;50.886;14.814;2023-09-08T04:27:26;11.70;99.90
6054;DHT22;3055;50.886;14.814;2023-09-08T04:29:53;11.70;99.90
6054;DHT22;3055;50.886;14.814;2023-09-08T04:32:20;11.70;99.90
6054;DHT22;3055;50.886;14.814;2023-09-08T04:34:49;11.70;99.90
6054;DHT22;3055;50.886;14.814;2023-09-08T04:37:16;11.70;99.90
6054;DHT22;3055;50.886;14.814;2023-09-08T04:39:43;11.70;99.90
6054;DHT22;3055;50.886;14.814;2023-09-08T04:42:10;11.70;99.90
6054;DHT22;3055;50.886;14.814;2023-09-08T04:44:38;11.80;99.90
6054;DHT22;3055;50.886;14.814;2023-09-08T04:47:05;11.80;99.90
6054;DHT22;3055;50.886;14.814;2023-09-08T04:49:32;11.80;99.90
6054;DHT22;3055;50.886;14.814;2023-09-08T04:52:01;11.90;99.90
6054;DHT22;3055;50.886;14.814;2023-09-08T04:54:28;12.00;99.90
6054;DHT22;3055;50.886;14.814;2023-09-08T04:56:55;12.10;99.90
6054;DHT22;3055;50.886;14.814;2023-09-08T04:59:22;12.10;99.90
6054;DHT22;3055;50.886;14.814;2023-09-08T05:01:49;12.10;99.90
6054;DHT22;3055;50.886;14.814;2023-09-08T05:04:17;12.20;99.90
6054;DHT22;3055;50.886;14.814;2023-09-08T05:06:44;12.30;99.90
6054;DHT22;3055;50.886;14.814;2023-09-08T05:09:13;12.40;99.90
6054;DHT22;3055;50.886;14.814;2023-09-08T05:11:40;12.50;99.90
6054;DHT22;3055;50.886;14.814;2023-09-08T05:14:07;12.60;99.90
6054;DHT22;3055;50.886;14.814;2023-09-08T05:16:34;12.60;99.90
6054;DHT22;3055;50.886;14.814;2023-09-08T05:19:11;12.70;99.90
6054;DHT22;3055;50.886;14.814;2023-09-08T05:21:38;12.80;99.90
6054;DHT22;3055;50.886;14.814;2023-09-08T05:24:06;13.00;99.90
6054;DHT22;3055;50.886;14.814;2023-09-08T05:26:37;13.10;99.90
6054;DHT22;3055;50.886;14.814;2023-09-08T05:29:05;13.20;99.90
6054;DHT22;3055;50.886;14.814;2023-09-08T05:31:32;13.30;99.90
6054;DHT22;3055;50.886;14.814;2023-09-08T05:33:59;13.40;99.90
6054;DHT22;3055;50.886;14.814;2023-09-08T05:36:26;13.60;99.90
6054;DHT22;3055;50.886;14.814;2023-09-08T05:38:55;13.60;99.90
6054;DHT22;3055;50.886;14.814;2023-09-08T05:41:22;13.70;99.90
6054;DHT22;3055;50.886;14.814;2023-09-08T05:43:50;13.80;99.90
6054;DHT22;3055;50.886;14.814;2023-09-08T05:46:17;13.90;99.90
6054;DHT22;3055;50.886;14.814;2023-09-08T05:48:45;14.00;99.90
6054;DHT22;3055;50.886;14.814;2023-09-08T05:51:13;14.10;99.90
6054;DHT22;3055;50.886;14.814;2023-09-08T05:53:40;14.20;99.90
6054;DHT22;3055;50.886;14.814;2023-09-08T05:56:07;14.30;99.90
6054;DHT22;3055;50.886;14.814;2023-09-08T05:58:34;14.40;99.90
6054;DHT22;3055;50.886;14.814;2023-09-08T06:01:03;14.50;99.90
6054;DHT22;3055;50.886;14.814;2023-09-08T06:03:30;14.60;99.90
6054;DHT22;3055;50.886;14.814;2023-09-08T06:05:57;14.80;99.90
6054;DHT22;3055;50.886;14.814;2023-09-08T06:08:24;14.90;99.90
6054;DHT22;3055;50.886;14.814;2023-09-08T06:10:51;15.10;99.90
6054;DHT22;3055;50.886;14.814;2023-09-08T06:13:18;15.20;99.90
6054;DHT22;3055;50.886;14.814;2023-09-08T06:15:45;15.30;99.90
6054;DHT22;3055;50.886;14.814;2023-09-08T06:18:14;15.50;99.90
6054;DHT22;3055;50.886;14.814;2023-09-08T06:20:44;15.60;99.90
6054;DHT22;3055;50.886;14.814;2023-09-08T06:23:12;15.80;99.90
6054;DHT22;3055;50.886;14.814;2023-09-08T06:25:39;16.00;99.90
6054;DHT22;3055;50.886;14.814;2023-09-08T06:28:07;16.20;99.90
6054;DHT22;3055;50.886;14.814;2023-09-08T06:30:34;16.40;99.90
6054;DHT22;3055;50.886;14.814;2023-09-08T06:33:01;16.60;99.90
6054;DHT22;3055;50.886;14.814;2023-09-08T06:35:30;16.80;99.90
6054;DHT22;3055;50.886;14.814;2023-09-08T06:37:57;16.90;99.90
6054;DHT22;3055;50.886;14.814;2023-09-08T06:40:24;17.10;99.90
6054;DHT22;3055;50.886;14.814;2023-09-08T06:42:51;17.30;99.90
6054;DHT22;3055;50.886;14.814;2023-09-08T06:45:18;17.50;99.90
6054;DHT22;3055;50.886;14.814;2023-09-08T06:47:45;17.80;99.90
6054;DHT22;3055;50.886;14.814;2023-09-08T06:50:12;18.00;99.90
6054;DHT22;3055;50.886;14.814;2023-09-08T06:52:40;18.20;74.90
6054;DHT22;3055;50.886;14.814;2023-09-08T06:55:07;18.40;67.30
6054;DHT22;3055;50.886;14.814;2023-09-08T06:57:35;18.60;53.80
6054;DHT22;3055;50.886;14.814;2023-09-08T07:00:03;18.80;34.90
6054;DHT22;3055;50.886;14.814;2023-09-08T07:02:33;18.90;28.10
6054;DHT22;3055;50.886;14.814;2023-09-08T07:05:00;19.10;22.00
6054;DHT22;3055;50.886;14.814;2023-09-08T07:07:32;19.20;16.50
6054;DHT22;3055;50.886;14.814;2023-09-08T07:10:00;19.30;6.70
6054;DHT22;3055;50.886;14.814;2023-09-08T07:12:29;19.40;14.50
6054;DHT22;3055;50.886;14.814;2023-09-08T07:14:56;19.60;6.80
6054;DHT22;3055;50.886;14.814;2023-09-08T07:17:24;19.90;1.00
6054;DHT22;3055;50.886;14.814;2023-09-08T07:19:51;20.10;1.00
6054;DHT22;3055;50.886;14.814;2023-09-08T07:22:18;20.20;99.90
6054;DHT22;3055;50.886;14.814;2023-09-08T07:24:45;20.40;99.90
6054;DHT22;3055;50.886;14.814;2023-09-08T07:27:13;20.60;99.90
6054;DHT22;3055;50.886;14.814;2023-09-08T07:29:40;20.80;8.40
6054;DHT22;3055;50.886;14.814;2023-09-08T07:32:07;20.90;1.00
6054;DHT22;3055;50.886;14.814;2023-09-08T07:34:35;21.00;1.00
6054;DHT22;3055;50.886;14.814;2023-09-08T07:37:02;21.20;1.00
6054;DHT22;3055;50.886;14.814;2023-09-08T07:39:29;21.50;1.00
6054;DHT22;3055;50.886;14.814;2023-09-08T07:41:57;21.70;1.00
6054;DHT22;3055;50.886;14.814;2023-09-08T07:44:25;21.90;1.00
6054;DHT22;3055;50.886;14.814;2023-09-08T07:46:52;22.10;1.00
6054;DHT22;3055;50.886;14.814;2023-09-08T07:49:21;22.20;99.90
6054;DHT22;3055;50.886;14.814;2023-09-08T07:51:49;22.30;99.90
6054;DHT22;3055;50.886;14.814;2023-09-08T07:54:16;22.50;99.90
6054;DHT22;3055;50.886;14.814;2023-09-08T07:56:43;22.80;99.90
6054;DHT22;3055;50.886;14.814;2023-09-08T07:59:10;22.90;99.90
6054;DHT22;3055;50.886;14.814;2023-09-08T08:01:38;23.00;99.90
6054;DHT22;3055;50.886;14.814;2023-09-08T08:04:05;23.20;99.90
6054;DHT22;3055;50.886;14.814;2023-09-08T08:06:32;23.30;99.90
6054;DHT22;3055;50.886;14.814;2023-09-08T08:09:00;23.60;99.90
6054;DHT22;3055;50.886;14.814;2023-09-08T08:11:28;23.70;99.90
6054;DHT22;3055;50.886;14.814;2023-09-08T08:13:55;23.80;99.90
6054;DHT22;3055;50.886;14.814;2023-09-08T08:16:22;24.00;99.90
6054;DHT22;3055;50.886;14.814;2023-09-08T08:18:51;24.10;99.90
6054;DHT22;3055;50.886;14.814;2023-09-08T08:21:18;24.30;99.90
6054;DHT22;3055;50.886;14.814;2023-09-08T08:23:45;24.40;99.90
6054;DHT22;3055;50.886;14.814;2023-09-08T08:26:12;24.50;99.90
6054;DHT22;3055;50.886;14.814;2023-09-08T08:28:39;24.60;99.90
6054;DHT22;3055;50.886;14.814;2023-09-08T08:31:06;24.80;99.90
6054;DHT22;3055;50.886;14.814;2023-09-08T08:33:33;24.90;99.90
6054;DHT22;3055;50.886;14.814;2023-09-08T08:36:02;25.00;99.90
6054;DHT22;3055;50.886;14.814;2023-09-08T08:38:29;25.10;99.90
6054;DHT22;3055;50.886;14.814;2023-09-08T08:41:02;25.20;99.90
6054;DHT22;3055;50.886;14.814;2023-09-08T08:43:31;25.20;99.90
6054;DHT22;3055;50.886;14.814;2023-09-08T08:45:58;25.30;99.90
6054;DHT22;3055;50.886;14.814;2023-09-08T08:48:27;25.40;99.90
6054;DHT22;3055;50.886;14.814;2023-09-08T08:50:57;25.60;99.90
6054;DHT22;3055;50.886;14.814;2023-09-08T08:53:26;25.70;90.40
6054;DHT22;3055;50.886;14.814;2023-09-08T08:55:56;25.90;44.70
6054;DHT22;3055;50.886;14.814;2023-09-08T08:58:25;26.00;17.20
6054;DHT22;3055;50.886;14.814;2023-09-08T09:00:53;26.00;7.90
6054;DHT22;3055;50.886;14.814;2023-09-08T09:03:24;25.90;1.00
6054;DHT22;3055;50.886;14.814;2023-09-08T09:05:53;25.90;1.00
6054;DHT22;3055;50.886;14.814;2023-09-08T09:08:20;25.90;1.00
6054;DHT22;3055;50.886;14.814;2023-09-08T09:10:52;26.00;1.00
6054;DHT22;3055;50.886;14.814;2023-09-08T09:13:19;26.10;1.00
6054;DHT22;3055;50.886;14.814;2023-09-08T09:15:48;26.00;1.00
6054;DHT22;3055;50.886;14.814;2023-09-08T09:18:16;26.00;1.00
6054;DHT22;3055;50.886;14.814;2023-09-08T09:20:53;26.00;1.00
6054;DHT22;3055;50.886;14.814;2023-09-08T09:23:27;26.10;1.00
6054;DHT22;3055;50.886;14.814;2023-09-08T09:25:56;26.10;1.00
6054;DHT22;3055;50.886;14.814;2023-09-08T09:28:23;26.20;1.00
6054;DHT22;3055;50.886;14.814;2023-09-08T09:30:52;26.30;1.00
6054;DHT22;3055;50.886;14.814;2023-09-08T09:33:21;26.30;1.00
6054;DHT22;3055;50.886;14.814;2023-09-08T09:35:50;26.40;1.00
6054;DHT22;3055;50.886;14.814;2023-09-08T09:38:26;26.50;1.00
6054;DHT22;3055;50.886;14.814;2023-09-08T09:40:55;26.40;1.00
6054;DHT22;3055;50.886;14.814;2023-09-08T09:43:23;26.40;1.00
6054;DHT22;3055;50.886;14.814;2023-09-08T09:45:50;26.50;1.00
6054;DHT22;3055;50.886;14.814;2023-09-08T09:48:20;26.50;1.00
6054;DHT22;3055;50.886;14.814;2023-09-08T09:50:49;26.60;1.00
6054;DHT22;3055;50.886;14.814;2023-09-08T09:53:20;26.60;1.00
6054;DHT22;3055;50.886;14.814;2023-09-08T09:55:47;26.80;1.00
6054;DHT22;3055;50.886;14.814;2023-09-08T09:58:15;26.80;1.00
6054;DHT22;3055;50.886;14.814;2023-09-08T10:00:42;26.80;1.00
6054;DHT22;3055;50.886;14.814;2023-09-08T10:03:13;26.70;1.00
6054;DHT22;3055;50.886;14.814;2023-09-08T10:05:40;26.70;1.00
6054;DHT22;3055;50.886;14.814;2023-09-08T10:08:07;26.60;1.00
6054;DHT22;3055;50.886;14.814;2023-09-08T10:10:35;26.70;1.00
6054;DHT22;3055;50.886;14.814;2023-09-08T10:13:06;26.70;1.00
6054;DHT22;3055;50.886;14.814;2023-09-08T10:15:35;26.70;1.00
6054;DHT22;3055;50.886;14.814;2023-09-08T10:18:05;26.70;1.00
6054;DHT22;3055;50.886;14.814;2023-09-08T10:20:33;26.80;1.00
6054;DHT22;3055;50.886;14.814;2023-09-08T10:23:19;26.90;1.00
6054;DHT22;3055;50.886;14.814;2023-09-08T10:25:52;27.00;1.00
6054;DHT22;3055;50.886;14.814;2023-09-08T10:28:21;27.10;1.00
6054;DHT22;3055;50.886;14.814;2023-09-08T10:30:50;27.20;1.00
6054;DHT22;3055;50.886;14.814;2023-09-08T10:33:18;27.20;1.00
6054;DHT22;3055;50.886;14.814;2023-09-08T10:35:46;27.20;1.00
6054;DHT22;3055;50.886;14.814;2023-09-08T10:38:24;27.40;1.00
6054;DHT22;3055;50.886;14.814;2023-09-08T10:40:51;27.40;1.00
6054;DHT22;3055;50.886;14.814;2023-09-08T10:43:19;27.50;1.00
6054;DHT22;3055;50.886;14.814;2023-09-08T10:45:47;27.50;1.00
6054;DHT22;3055;50.886;14.814;2023-09-08T10:48:15;27.70;1.00
6054;DHT22;3055;50.886;14.814;2023-09-08T10:50:42;27.80;1.00
6054;DHT22;3055;50.886;14.814;2023-09-08T10:53:14;27.90;1.00
6054;DHT22;3055;50.886;14.814;2023-09-08T10:55:43;28.00;1.00
6054;DHT22;3055;50.886;14.814;2023-09-08T10:58:20;27.90;1.00
6054;DHT22;3055;50.886;14.814;2023-09-08T11:00:51;28.00;1.00
6054;DHT22;3055;50.886;14.814;2023-09-08T11:03:27;27.80;1.00
6054;DHT22;3055;50.886;14.814;2023-09-08T11:05:56;27.90;1.00
6054;DHT22;3055;50.886;14.814;2023-09-08T11:08:24;28.00;1.00
6054;DHT22;3055;50.886;14.814;2023-09-08T11:10:51;28.00;1.00
6054;DHT22;3055;50.886;14.814;2023-09-08T11:13:18;28.10;1.00
6054;DHT22;3055;50.886;14.814;2023-09-08T11:15:45;28.30;1.00
6054;DHT22;3055;50.886;14.814;2023-09-08T11:18:12;28.30;1.00
6054;DHT22;3055;50.886;14.814;2023-09-08T11:20:41;28.50;1.00
6054;DHT22;3055;50.886;14.814;2023-09-08T11:23:10;28.60;1.00
6054;DHT22;3055;50.886;14.814;2023-09-08T11:25:37;28.70;1.00
6054;DHT22;3055;50.886;14.814;2023-09-08T11:28:05;28.50;1.00
6054;DHT22;3055;50.886;14.814;2023-09-08T11:30:33;28.40;1.00
6054;DHT22;3055;50.886;14.814;2023-09-08T11:33:01;28.60;1.00
6054;DHT22;3055;50.886;14.814;2023-09-08T11:35:31;28.80;1.00
6054;DHT22;3055;50.886;14.814;2023-09-08T11:38:02;28.80;1.00
6054;DHT22;3055;50.886;14.814;2023-09-08T11:40:31;28.70;1.00
6054;DHT22;3055;50.886;14.814;2023-09-08T11:42:58;28.70;1.00
6054;DHT22;3055;50.886;14.814;2023-09-08T11:45:25;28.80;1.00
6054;DHT22;3055;50.886;14.814;2023-09-08T11:47:53;28.80;1.00
6054;DHT22;3055;50.886;14.814;2023-09-08T11:50:22;28.90;1.00
6054;DHT22;3055;50.886;14.814;2023-09-08T11:52:50;29.10;1.00
6054;DHT22;3055;50.886;14.814;2023-09-08T11:55:20;29.10;1.00
6054;DHT22;3055;50.886;14.814;2023-09-08T11:57:50;29.20;1.00
6054;DHT22;3055;50.886;14.814;2023-09-08T12:00:21;29.30;1.00
6054;DHT22;3055;50.886;14.814;2023-09-08T12:02:49;29.30;1.00
6054;DHT22;3055;50.886;14.814;2023-09-08T12:05:21;29.30;1.00
6054;DHT22;3055;50.886;14.814;2023-09-08T12:07:51;29.40;1.00
6054;DHT22;3055;50.886;14.814;2023-09-08T12:10:20;29.50;1.00
6054;DHT22;3055;50.886;14.814;2023-09-08T12:12:49;29.50;1.00
6054;DHT22;3055;50.886;14.814;2023-09-08T12:15:32;29.50;1.00
6054;DHT22;3055;50.886;14.814;2023-09-08T12:18:00;29.40;1.00
6054;DHT22;3055;50.886;14.814;2023-09-08T12:20:29;29.30;1.00
6054;DHT22;3055;50.886;14.814;2023-09-08T12:22:58;29.30;1.00
6054;DHT22;3055;50.886;14.814;2023-09-08T12:25:28;29.20;1.00
6054;DHT22;3055;50.886;14.814;2023-09-08T12:27:57;29.30;1.00
6054;DHT22;3055;50.886;14.814;2023-09-08T12:30:25;29.40;1.00
6054;DHT22;3055;50.886;14.814;2023-09-08T12:32:57;29.40;1.00
6054;DHT22;3055;50.886;14.814;2023-09-08T12:35:26;29.50;1.00
6054;DHT22;3055;50.886;14.814;2023-09-08T12:37:57;29.70;1.00
6054;DHT22;3055;50.886;14.814;2023-09-08T12:40:27;29.80;1.00
6054;DHT22;3055;50.886;14.814;2023-09-08T12:42:55;29.80;1.00
6054;DHT22;3055;50.886;14.814;2023-09-08T12:45:24;29.70;1.00
6054;DHT22;3055;50.886;14.814;2023-09-08T12:47:52;29.70;1.00
6054;DHT22;3055;50.886;14.814;2023-09-08T12:50:20;29.70;1.00
6054;DHT22;3055;50.886;14.814;2023-09-08T12:52:47;29.80;1.00
6054;DHT22;3055;50.886;14.814;2023-09-08T12:55:15;29.70;1.00
6054;DHT22;3055;50.886;14.814;2023-09-08T12:57:43;29.80;1.00
6054;DHT22;3055;50.886;14.814;2023-09-08T13:00:11;30.00;1.00
6054;DHT22;3055;50.886;14.814;2023-09-08T13:02:39;30.10;1.00
6054;DHT22;3055;50.886;14.814;2023-09-08T13:05:07;30.20;1.00
6054;DHT22;3055;50.886;14.814;2023-09-08T13:07:34;30.40;1.00
6054;DHT22;3055;50.886;14.814;2023-09-08T13:10:01;30.60;1.00
6054;DHT22;3055;50.886;14.814;2023-09-08T13:12:28;30.70;1.00
6054;DHT22;3055;50.886;14.814;2023-09-08T13:14:58;30.90;1.00
6054;DHT22;3055;50.886;14.814;2023-09-08T13:17:25;31.30;1.00
6054;DHT22;3055;50.886;14.814;2023-09-08T13:19:52;31.60;1.00
6054;DHT22;3055;50.886;14.814;2023-09-08T13:22:20;31.90;1.00
6054;DHT22;3055;50.886;14.814;2023-09-08T13:24:47;31.80;1.00
6054;DHT22;3055;50.886;14.814;2023-09-08T13:27:14;31.90;1.00
6054;DHT22;3055;50.886;14.814;2023-09-08T13:29:43;32.20;1.00
6054;DHT22;3055;50.886;14.814;2023-09-08T13:32:11;32.40;1.00
6054;DHT22;3055;50.886;14.814;2023-09-08T13:34:39;32.40;1.00
6054;DHT22;3055;50.886;14.814;2023-09-08T13:37:06;32.40;1.00
6054;DHT22;3055;50.886;14.814;2023-09-08T13:39:33;32.70;1.00
6054;DHT22;3055;50.886;14.814;2023-09-08T13:42:01;32.90;1.00
6054;DHT22;3055;50.886;14.814;2023-09-08T13:44:28;33.00;1.00
6054;DHT22;3055;50.886;14.814;2023-09-08T13:46:55;32.70;1.00
6054;DHT22;3055;50.886;14.814;2023-09-08T13:49:25;32.90;1.00
6054;DHT22;3055;50.886;14.814;2023-09-08T13:51:53;33.00;1.00
6054;DHT22;3055;50.886;14.814;2023-09-08T13:54:20;33.30;1.00
6054;DHT22;3055;50.886;14.814;2023-09-08T13:56:57;33.40;1.00
6054;DHT22;3055;50.886;14.814;2023-09-08T13:59:25;33.70;1.00
6054;DHT22;3055;50.886;14.814;2023-09-08T14:01:52;34.00;1.00
6054;DHT22;3055;50.886;14.814;2023-09-08T14:04:20;34.00;1.00
6054;DHT22;3055;50.886;14.814;2023-09-08T14:06:49;34.10;1.00
6054;DHT22;3055;50.886;14.814;2023-09-08T14:09:16;34.40;1.00
6054;DHT22;3055;50.886;14.814;2023-09-08T14:11:43;34.70;1.00
6054;DHT22;3055;50.886;14.814;2023-09-08T14:14:10;35.00;1.00
6054;DHT22;3055;50.886;14.814;2023-09-08T14:16:37;34.80;1.00
6054;DHT22;3055;50.886;14.814;2023-09-08T14:19:04;34.80;1.00
6054;DHT22;3055;50.886;14.814;2023-09-08T14:21:32;34.80;1.00
6054;DHT22;3055;50.886;14.814;2023-09-08T14:24:00;34.80;1.00
6054;DHT22;3055;50.886;14.814;2023-09-08T14:26:27;35.10;1.00
6054;DHT22;3055;50.886;14.814;2023-09-08T14:28:54;35.70;1.00
6054;DHT22;3055;50.886;14.814;2023-09-08T14:31:21;35.30;1.00
6054;DHT22;3055;50.886;14.814;2023-09-08T14:33:48;34.70;1.00
6054;DHT22;3055;50.886;14.814;2023-09-08T14:36:18;35.00;1.00
6054;DHT22;3055;50.886;14.814;2023-09-08T14:38:45;35.70;1.00
6054;DHT22;3055;50.886;14.814;2023-09-08T14:41:14;36.00;1.00
6054;DHT22;3055;50.886;14.814;2023-09-08T14:43:41;36.50;1.00
6054;DHT22;3055;50.886;14.814;2023-09-08T14:46:08;36.70;1.00
6054;DHT22;3055;50.886;14.814;2023-09-08T14:48:35;37.00;1.00
6054;DHT22;3055;50.886;14.814;2023-09-08T14:51:02;37.10;1.00
6054;DHT22;3055;50.886;14.814;2023-09-08T14:53:30;37.20;1.00
6054;DHT22;3055;50.886;14.814;2023-09-08T14:55:58;37.30;1.00
6054;DHT22;3055;50.886;14.814;2023-09-08T14:58:26;37.20;1.00
6054;DHT22;3055;50.886;14.814;2023-09-08T15:00:59;36.90;1.00
6054;DHT22;3055;50.886;14.814;2023-09-08T15:03:30;36.90;1.00
6054;DHT22;3055;50.886;14.814;2023-09-08T15:05:57;36.80;1.00
6054;DHT22;3055;50.886;14.814;2023-09-08T15:08:24;36.80;1.00
6054;DHT22;3055;50.886;14.814;2023-09-08T15:10:51;36.70;1.00
6054;DHT22;3055;50.886;14.814;2023-09-08T15:13:18;36.10;1.00
6054;DHT22;3055;50.886;14.814;2023-09-08T15:15:47;35.70;1.00
6054;DHT22;3055;50.886;14.814;2023-09-08T15:18:14;36.00;1.00
6054;DHT22;3055;50.886;14.814;2023-09-08T15:20:50;36.10;1.00
6054;DHT22;3055;50.886;14.814;2023-09-08T15:23:18;36.30;1.00
6054;DHT22;3055;50.886;14.814;2023-09-08T15:25:51;36.30;1.00
6054;DHT22;3055;50.886;14.814;2023-09-08T15:28:18;36.50;1.00
6054;DHT22;3055;50.886;14.814;2023-09-08T15:30:48;36.30;1.00
6054;DHT22;3055;50.886;14.814;2023-09-08T15:33:19;36.20;1.00
6054;DHT22;3055;50.886;14.814;2023-09-08T15:35:48;36.50;1.00
6054;DHT22;3055;50.886;14.814;2023-09-08T15:38:15;36.40;1.00
6054;DHT22;3055;50.886;14.814;2023-09-08T15:41:13;36.70;1.00
6054;DHT22;3055;50.886;14.814;2023-09-08T15:43:44;36.80;1.00
6054;DHT22;3055;50.886;14.814;2023-09-08T15:46:13;36.90;1.00
6054;DHT22;3055;50.886;14.814;2023-09-08T15:48:40;36.90;1.00
6054;DHT22;3055;50.886;14.814;2023-09-08T15:51:08;36.50;1.00
6054;DHT22;3055;50.886;14.814;2023-09-08T15:53:36;36.00;1.00
6054;DHT22;3055;50.886;14.814;2023-09-08T15:56:03;35.00;99.90
6054;DHT22;3055;50.886;14.814;2023-09-08T15:58:30;33.80;99.90